createdAt,value
2023-05-06T00:02:28.007Z,11.34
2023-05-06T00:07:29.827Z,11.30
2023-05-06T00:12:31.557Z,11.23
2023-05-06T00:17:33.170Z,11.19
2023-05-06T00:22:35.122Z,11.16
2023-05-06T00:27:36.862Z,11.13
2023-05-06T00:32:39.060Z,11.10
2023-05-06T00:37:40.859Z,11.06
2023-05-06T00:42:42.987Z,11.01
2023-05-06T00:47:45.030Z,10.99
2023-05-06T00:52:46.892Z,10.92
2023-05-06T00:57:51.921Z,10.88
2023-05-06T01:02:53.816Z,10.85
2023-05-06T01:08:03.142Z,10.80
2023-05-06T01:13:14.063Z,10.78
2023-05-06T01:18:17.592Z,10.76
2023-05-06T01:23:19.453Z,10.73
2023-05-06T01:28:21.202Z,10.70
2023-05-06T01:33:50.864Z,10.64
2023-05-06T01:39:05.007Z,10.61
2023-05-06T01:44:08.287Z,10.55
2023-05-06T01:49:11.643Z,10.52
2023-05-06T01:54:13.527Z,10.53
2023-05-06T01:59:15.254Z,10.48
2023-05-06T02:04:16.961Z,10.43
2023-05-06T02:09:18.801Z,10.34
2023-05-06T02:14:26.692Z,10.22
2023-05-06T02:19:29.357Z,10.16
2023-05-06T02:24:31.127Z,10.13
2023-05-06T02:29:32.774Z,10.07
2023-05-06T02:34:34.553Z,10.04
2023-05-06T02:39:36.258Z,10.03
2023-05-06T02:44:37.889Z,10.01
2023-05-06T02:49:39.621Z,10.04
2023-05-06T02:54:41.354Z,10.08
2023-05-06T02:59:43.003Z,10.14
2023-05-06T03:04:44.654Z,10.18
2023-05-06T03:09:46.358Z,10.20
2023-05-06T03:14:48.287Z,10.23
2023-05-06T03:19:50.633Z,10.21
2023-05-06T03:24:52.675Z,10.20
2023-05-06T03:29:54.926Z,10.19
2023-05-06T03:34:57.968Z,10.13
2023-05-06T03:40:00.779Z,10.08
2023-05-06T03:45:05.135Z,10.06
2023-05-06T03:50:08.006Z,10.11
2023-05-06T03:55:11.522Z,10.25
2023-05-06T04:00:15.023Z,10.41
2023-05-06T04:07:12.562Z,10.46
2023-05-06T04:12:14.451Z,10.58
2023-05-06T04:17:16.425Z,10.73
2023-05-06T04:22:18.774Z,10.91
2023-05-06T04:27:21.193Z,11.09
2023-05-06T04:32:26.489Z,11.29
2023-05-06T04:37:29.137Z,11.46
2023-05-06T04:42:42.170Z,11.60
2023-05-06T04:47:48.752Z,11.77
2023-05-06T04:52:51.979Z,12.00
2023-05-06T04:57:54.158Z,12.21
2023-05-06T05:02:56.130Z,12.42
2023-05-06T05:08:06.568Z,12.64
2023-05-06T05:13:10.166Z,13.10
2023-05-06T05:18:12.777Z,13.78
2023-05-06T05:23:14.800Z,13.91
2023-05-06T05:28:17.938Z,13.90
2023-05-06T05:33:20.266Z,13.88
2023-05-06T05:38:22.231Z,13.95
2023-05-06T05:43:25.986Z,14.19
2023-05-06T05:48:28.532Z,14.57
2023-05-06T05:53:31.411Z,14.94
2023-05-06T05:58:34.279Z,15.06
2023-05-06T06:03:36.372Z,15.03
2023-05-06T06:08:40.831Z,14.88
2023-05-06T06:13:43.062Z,14.64
2023-05-06T06:18:45.080Z,14.50
2023-05-06T06:23:47.147Z,14.62
2023-05-06T06:28:49.215Z,14.71
2023-05-06T06:33:51.036Z,14.98
2023-05-06T06:38:53.868Z,15.17
2023-05-06T06:43:55.848Z,15.37
2023-05-06T06:49:03.741Z,15.68
2023-05-06T06:54:05.574Z,15.79
2023-05-06T06:59:07.967Z,15.99
2023-05-06T07:04:09.729Z,16.18
2023-05-06T07:09:12.072Z,16.49
2023-05-06T07:14:13.911Z,16.70
2023-05-06T07:19:15.684Z,16.69
2023-05-06T07:24:17.307Z,16.59
2023-05-06T07:29:19.044Z,16.46
2023-05-06T07:34:20.762Z,16.29
2023-05-06T07:39:22.430Z,16.15
2023-05-06T07:44:24.132Z,16.11
2023-05-06T07:49:28.665Z,15.90
2023-05-06T07:54:31.789Z,15.83
2023-05-06T07:59:33.643Z,15.75
2023-05-06T08:04:35.904Z,15.61
2023-05-06T08:09:38.117Z,15.59
2023-05-06T08:14:39.779Z,15.66
2023-05-06T08:19:41.477Z,15.68
2023-05-06T08:24:43.497Z,15.64
2023-05-06T08:29:45.207Z,15.67
2023-05-06T08:34:46.893Z,15.65
2023-05-06T08:39:48.595Z,15.68
2023-05-06T08:44:52.239Z,15.71
2023-05-06T08:49:53.982Z,15.79
2023-05-06T08:55:01.342Z,15.82
2023-05-06T09:00:05.046Z,15.53
2023-05-06T09:05:10.096Z,15.58
2023-05-06T09:10:13.633Z,15.80
2023-05-06T09:15:15.357Z,16.02
2023-05-06T09:20:17.472Z,16.27
2023-05-06T09:25:19.236Z,16.32
2023-05-06T09:30:20.979Z,16.22
2023-05-06T09:35:28.108Z,16.16
2023-05-06T09:40:30.820Z,16.18
2023-05-06T09:45:33.199Z,16.19
2023-05-06T09:50:35.845Z,16.18
2023-05-06T09:55:38.468Z,16.13
2023-05-06T10:00:41.236Z,16.08
2023-05-06T10:05:43.127Z,16.19
2023-05-06T10:10:48.776Z,16.13
2023-05-06T10:15:51.250Z,16.07
2023-05-06T10:20:55.367Z,15.97
2023-05-06T10:26:01.168Z,15.83
2023-05-06T10:31:04.972Z,15.69
2023-05-06T10:36:27.902Z,15.70
2023-05-06T10:41:30.894Z,15.66
2023-05-06T10:46:33.020Z,15.57
2023-05-06T10:51:38.778Z,15.44
2023-05-06T10:57:10.992Z,15.42
2023-05-06T11:02:13.744Z,15.40
2023-05-06T11:07:21.753Z,15.40
2023-05-06T11:12:52.812Z,15.52
2023-05-06T11:17:57.129Z,15.57
2023-05-06T11:22:59.057Z,15.54
2023-05-06T11:28:01.578Z,15.41
2023-05-06T11:33:05.698Z,15.24
2023-05-06T11:38:07.755Z,15.07
2023-05-06T11:43:14.245Z,15.05
2023-05-06T11:48:17.504Z,15.10
2023-05-06T11:53:21.949Z,15.14
2023-05-06T11:58:26.497Z,15.13
2023-05-06T12:03:31.492Z,15.12
2023-05-06T12:08:35.962Z,15.17
2023-05-06T12:13:44.257Z,15.14
2023-05-06T12:18:46.061Z,15.17
2023-05-06T12:23:56.327Z,15.20
2023-05-06T12:29:06.925Z,15.25
2023-05-06T12:34:08.787Z,15.35
2023-05-06T12:39:11.770Z,15.40
2023-05-06T12:44:32.652Z,15.42
2023-05-06T12:50:00.657Z,15.36
2023-05-06T12:55:02.795Z,15.15
2023-05-06T13:00:07.428Z,15.02
2023-05-06T13:05:10.876Z,15.01
2023-05-06T13:10:12.804Z,15.36
2023-05-06T13:15:14.939Z,16.02
2023-05-06T13:20:18.446Z,16.41
2023-05-06T13:25:20.085Z,16.25
2023-05-06T13:30:21.777Z,16.21
2023-05-06T13:35:23.503Z,16.20
2023-05-06T13:40:25.210Z,16.30
2023-05-06T13:45:26.883Z,16.52
2023-05-06T13:50:28.612Z,16.69
2023-05-06T13:55:30.425Z,16.75
2023-05-06T14:00:32.939Z,16.87
2023-05-06T14:05:34.875Z,17.00
2023-05-06T14:10:36.544Z,17.13
2023-05-06T14:15:38.242Z,17.38
2023-05-06T14:20:40.146Z,17.74
2023-05-06T14:25:41.788Z,18.25
2023-05-06T14:30:44.273Z,18.29
2023-05-06T14:35:49.769Z,18.36
2023-05-06T14:40:53.016Z,18.65
2023-05-06T14:45:54.777Z,19.14
2023-05-06T14:50:56.563Z,19.47
2023-05-06T14:55:58.221Z,19.77
2023-05-06T15:00:59.997Z,19.88
2023-05-06T15:06:01.801Z,19.94
2023-05-06T15:11:04.259Z,19.61
2023-05-06T15:16:15.971Z,19.32
2023-05-06T15:21:17.686Z,19.16
2023-05-06T15:26:19.846Z,18.99
2023-05-06T15:31:21.566Z,19.10
2023-05-06T15:36:23.244Z,18.91
2023-05-06T15:41:31.441Z,18.98
2023-05-06T15:46:33.648Z,19.33
2023-05-06T15:51:35.426Z,19.29
2023-05-06T15:56:41.040Z,19.01
2023-05-06T16:02:24.892Z,18.44
2023-05-06T16:07:05.612Z,18.26
2023-05-06T16:12:07.414Z,18.30
2023-05-06T16:17:09.134Z,18.46
2023-05-06T16:22:10.961Z,18.57
2023-05-06T16:27:13.979Z,18.50
2023-05-06T16:32:15.733Z,18.14
2023-05-06T16:37:17.496Z,17.52
2023-05-06T16:42:19.163Z,16.91
2023-05-06T16:47:23.756Z,16.54
2023-05-06T16:52:25.593Z,16.36
2023-05-06T16:57:27.237Z,16.19
2023-05-06T17:02:29.047Z,15.95
2023-05-06T17:07:30.775Z,16.08
2023-05-06T17:12:32.904Z,16.58
2023-05-06T17:17:34.867Z,16.56
2023-05-06T17:27:38.894Z,16.70
2023-05-06T17:32:41.733Z,16.68
2023-05-06T17:37:43.402Z,16.77
2023-05-06T17:42:45.462Z,16.70
2023-05-06T17:47:47.195Z,16.15
2023-05-06T17:52:52.902Z,15.41
2023-05-06T17:57:54.672Z,14.83
2023-05-06T18:02:56.362Z,14.30
2023-05-06T18:07:58.491Z,13.88
2023-05-06T18:13:00.348Z,13.49
2023-05-06T18:18:02.286Z,13.24
2023-05-06T18:23:04.135Z,13.15
2023-05-06T18:28:06.078Z,13.08
2023-05-06T18:33:07.827Z,13.04
2023-05-06T18:38:11.032Z,12.99
2023-05-06T18:43:13.560Z,12.94
2023-05-06T18:48:16.141Z,12.86
2023-05-06T18:53:17.891Z,12.81
2023-05-06T18:58:19.701Z,12.75
2023-05-06T19:03:22.386Z,12.72
2023-05-06T19:08:24.077Z,12.61
2023-05-06T19:13:26.381Z,12.63
2023-05-06T19:18:28.119Z,12.58
2023-05-06T19:23:30.011Z,12.57
2023-05-06T19:28:31.844Z,12.65
2023-05-06T19:33:33.603Z,12.62
2023-05-06T19:38:35.434Z,12.61
2023-05-06T19:43:42.484Z,12.57
2023-05-06T19:48:45.594Z,12.58
2023-05-06T19:53:59.033Z,12.56
2023-05-06T19:59:00.754Z,12.56
2023-05-06T20:04:03.281Z,12.57
2023-05-06T20:09:05.039Z,12.51
2023-05-06T20:14:08.088Z,12.48
2023-05-06T20:19:09.759Z,12.48
2023-05-06T20:24:11.612Z,12.52
2023-05-06T20:29:13.333Z,12.57
2023-05-06T20:34:15.173Z,12.56
2023-05-06T20:39:16.912Z,12.39
2023-05-06T20:44:21.331Z,12.23
2023-05-06T20:49:23.333Z,12.13
2023-05-06T20:54:25.064Z,12.05
2023-05-06T20:59:29.516Z,12.00
2023-05-06T21:04:31.611Z,11.98
2023-05-06T21:09:34.922Z,11.97
2023-05-06T21:15:00.697Z,12.12
2023-05-06T21:20:04.069Z,12.24
2023-05-06T21:25:07.608Z,12.29
2023-05-06T21:30:10.438Z,12.42
2023-05-06T21:35:18.587Z,12.44
2023-05-06T21:40:21.193Z,12.50
2023-05-06T21:45:24.041Z,12.48
2023-05-06T21:50:27.270Z,12.45
2023-05-06T21:55:29.231Z,12.51
2023-05-06T22:00:30.918Z,12.44
2023-05-06T22:05:32.569Z,12.21
2023-05-06T22:10:34.386Z,12.01
2023-05-06T22:15:36.148Z,11.98
2023-05-06T22:20:37.842Z,11.98
2023-05-06T22:25:39.502Z,11.99
2023-05-06T22:30:41.325Z,12.09
2023-05-06T22:35:43.025Z,12.21
2023-05-06T22:40:44.703Z,12.15
2023-05-06T22:45:46.662Z,12.01
2023-05-06T22:50:48.341Z,11.95
2023-05-06T22:55:50.224Z,11.86
2023-05-06T23:00:52.183Z,11.67
2023-05-06T23:05:54.303Z,11.53
2023-05-06T23:10:58.921Z,11.44
2023-05-06T23:16:02.644Z,11.33
2023-05-06T23:21:04.578Z,11.26
2023-05-06T23:26:06.780Z,11.21
2023-05-06T23:31:08.462Z,11.19
2023-05-06T23:36:10.432Z,11.16
2023-05-06T23:41:13.527Z,11.16
2023-05-06T23:46:17.784Z,11.13
2023-05-06T23:51:20.844Z,11.19
2023-05-06T23:56:22.933Z,11.23
